sensor_id;sensor_type;location;lat;lon;timestamp;P1;durP1;ratioP1;P2;durP2;ratioP2
12892;SDS011;6514;48.606;9.222;2022-09-20T00:02:19;7.07;;;3.83;;
12892;SDS011;6514;48.606;9.222;2022-09-20T00:04:46;7.27;;;3.80;;
12892;SDS011;6514;48.606;9.222;2022-09-20T00:07:14;4.70;;;3.70;;
12892;SDS011;6514;48.606;9.222;2022-09-20T00:09:41;6.10;;;4.27;;
12892;SDS011;6514;48.606;9.222;2022-09-20T00:12:08;7.17;;;4.70;;
12892;SDS011;6514;48.606;9.222;2022-09-20T00:14:34;6.07;;;4.40;;
12892;SDS011;6514;48.606;9.222;2022-09-20T00:17:01;6.07;;;4.53;;
12892;SDS011;6514;48.606;9.222;2022-09-20T00:19:30;6.70;;;4.70;;
12892;SDS011;6514;48.606;9.222;2022-09-20T00:21:56;6.37;;;4.80;;
12892;SDS011;6514;48.606;9.222;2022-09-20T00:24:23;5.23;;;4.53;;
12892;SDS011;6514;48.606;9.222;2022-09-20T00:26:50;8.70;;;4.67;;
12892;SDS011;6514;48.606;9.222;2022-09-20T00:29:18;8.57;;;4.60;;
12892;SDS011;6514;48.606;9.222;2022-09-20T00:31:45;6.93;;;4.73;;
12892;SDS011;6514;48.606;9.222;2022-09-20T00:34:11;6.10;;;4.57;;
12892;SDS011;6514;48.606;9.222;2022-09-20T00:36:57;6.90;;;5.23;;
12892;SDS011;6514;48.606;9.222;2022-09-20T00:39:24;6.40;;;4.27;;
12892;SDS011;6514;48.606;9.222;2022-09-20T00:41:51;5.80;;;4.40;;
12892;SDS011;6514;48.606;9.222;2022-09-20T00:47:10;6.60;;;4.10;;
12892;SDS011;6514;48.606;9.222;2022-09-20T00:49:42;6.00;;;4.10;;
12892;SDS011;6514;48.606;9.222;2022-09-20T00:52:11;5.80;;;4.03;;
12892;SDS011;6514;48.606;9.222;2022-09-20T00:54:38;6.20;;;4.40;;
12892;SDS011;6514;48.606;9.222;2022-09-20T00:57:05;6.73;;;3.93;;
12892;SDS011;6514;48.606;9.222;2022-09-20T00:59:33;7.20;;;4.17;;
12892;SDS011;6514;48.606;9.222;2022-09-20T01:02:04;8.03;;;4.20;;
12892;SDS011;6514;48.606;9.222;2022-09-20T01:04:34;6.37;;;4.37;;
12892;SDS011;6514;48.606;9.222;2022-09-20T01:07:04;8.93;;;4.33;;
12892;SDS011;6514;48.606;9.222;2022-09-20T01:09:34;6.57;;;4.10;;
12892;SDS011;6514;48.606;9.222;2022-09-20T01:12:01;5.07;;;3.80;;
12892;SDS011;6514;48.606;9.222;2022-09-20T01:14:31;5.23;;;4.03;;
12892;SDS011;6514;48.606;9.222;2022-09-20T01:17:01;5.80;;;3.57;;
12892;SDS011;6514;48.606;9.222;2022-09-20T01:19:33;7.27;;;4.23;;
12892;SDS011;6514;48.606;9.222;2022-09-20T01:22:05;5.63;;;4.00;;
12892;SDS011;6514;48.606;9.222;2022-09-20T01:24:43;6.50;;;3.77;;
12892;SDS011;6514;48.606;9.222;2022-09-20T01:27:16;6.50;;;4.33;;
12892;SDS011;6514;48.606;9.222;2022-09-20T01:29:54;6.40;;;3.80;;
12892;SDS011;6514;48.606;9.222;2022-09-20T01:32:29;7.00;;;4.37;;
12892;SDS011;6514;48.606;9.222;2022-09-20T01:35:04;7.03;;;3.53;;
12892;SDS011;6514;48.606;9.222;2022-09-20T01:37:35;7.67;;;3.00;;
12892;SDS011;6514;48.606;9.222;2022-09-20T01:40:08;5.60;;;3.23;;
12892;SDS011;6514;48.606;9.222;2022-09-20T01:42:43;5.40;;;3.50;;
12892;SDS011;6514;48.606;9.222;2022-09-20T01:45:18;5.13;;;3.70;;
12892;SDS011;6514;48.606;9.222;2022-09-20T01:47:50;5.03;;;3.73;;
12892;SDS011;6514;48.606;9.222;2022-09-20T01:50:30;6.10;;;3.67;;
12892;SDS011;6514;48.606;9.222;2022-09-20T01:53:10;5.57;;;4.10;;
12892;SDS011;6514;48.606;9.222;2022-09-20T01:56:10;5.80;;;3.83;;
12892;SDS011;6514;48.606;9.222;2022-09-20T02:05:20;7.33;;;3.90;;
12892;SDS011;6514;48.606;9.222;2022-09-20T02:11:20;11.33;;;3.67;;
12892;SDS011;6514;48.606;9.222;2022-09-20T02:14:02;6.47;;;4.37;;
12892;SDS011;6514;48.606;9.222;2022-09-20T02:19:26;7.83;;;3.53;;
12892;SDS011;6514;48.606;9.222;2022-09-20T02:22:18;5.63;;;3.70;;
12892;SDS011;6514;48.606;9.222;2022-09-20T02:24:52;5.47;;;3.53;;
12892;SDS011;6514;48.606;9.222;2022-09-20T02:27:29;6.07;;;3.50;;
12892;SDS011;6514;48.606;9.222;2022-09-20T02:30:06;8.70;;;3.50;;
12892;SDS011;6514;48.606;9.222;2022-09-20T02:32:45;7.73;;;3.70;;
12892;SDS011;6514;48.606;9.222;2022-09-20T02:35:34;5.73;;;3.60;;
12892;SDS011;6514;48.606;9.222;2022-09-20T02:38:09;5.50;;;3.87;;
12892;SDS011;6514;48.606;9.222;2022-09-20T02:40:45;4.30;;;3.80;;
12892;SDS011;6514;48.606;9.222;2022-09-20T02:43:26;5.60;;;3.77;;
12892;SDS011;6514;48.606;9.222;2022-09-20T02:46:00;6.50;;;3.83;;
12892;SDS011;6514;48.606;9.222;2022-09-20T02:48:33;8.07;;;3.57;;
12892;SDS011;6514;48.606;9.222;2022-09-20T02:51:13;5.40;;;3.53;;
12892;SDS011;6514;48.606;9.222;2022-09-20T02:53:46;4.83;;;3.30;;
12892;SDS011;6514;48.606;9.222;2022-09-20T02:56:21;5.70;;;3.57;;
12892;SDS011;6514;48.606;9.222;2022-09-20T02:59:00;6.13;;;3.27;;
12892;SDS011;6514;48.606;9.222;2022-09-20T03:01:34;8.57;;;3.33;;
12892;SDS011;6514;48.606;9.222;2022-09-20T03:04:12;6.03;;;3.50;;
12892;SDS011;6514;48.606;9.222;2022-09-20T03:06:52;7.70;;;3.83;;
12892;SDS011;6514;48.606;9.222;2022-09-20T03:09:26;10.70;;;3.87;;
12892;SDS011;6514;48.606;9.222;2022-09-20T03:12:01;6.40;;;3.47;;
12892;SDS011;6514;48.606;9.222;2022-09-20T03:14:39;4.47;;;3.47;;
12892;SDS011;6514;48.606;9.222;2022-09-20T03:17:15;8.00;;;3.73;;
12892;SDS011;6514;48.606;9.222;2022-09-20T03:19:50;5.73;;;3.37;;
12892;SDS011;6514;48.606;9.222;2022-09-20T03:22:38;6.70;;;4.03;;
12892;SDS011;6514;48.606;9.222;2022-09-20T03:25:26;4.60;;;3.50;;
12892;SDS011;6514;48.606;9.222;2022-09-20T03:28:02;7.20;;;3.50;;
12892;SDS011;6514;48.606;9.222;2022-09-20T03:30:41;7.07;;;3.60;;
12892;SDS011;6514;48.606;9.222;2022-09-20T03:33:17;5.60;;;3.23;;
12892;SDS011;6514;48.606;9.222;2022-09-20T03:35:56;7.93;;;3.37;;
12892;SDS011;6514;48.606;9.222;2022-09-20T03:38:41;6.77;;;3.93;;
12892;SDS011;6514;48.606;9.222;2022-09-20T03:41:23;27.07;;;21.63;;
12892;SDS011;6514;48.606;9.222;2022-09-20T03:44:09;6.60;;;4.50;;
12892;SDS011;6514;48.606;9.222;2022-09-20T03:46:50;6.50;;;3.23;;
12892;SDS011;6514;48.606;9.222;2022-09-20T03:49:51;11.20;;;3.47;;
12892;SDS011;6514;48.606;9.222;2022-09-20T03:52:33;7.47;;;3.43;;
12892;SDS011;6514;48.606;9.222;2022-09-20T03:55:26;6.00;;;3.40;;
12892;SDS011;6514;48.606;9.222;2022-09-20T03:58:15;5.60;;;3.20;;
12892;SDS011;6514;48.606;9.222;2022-09-20T04:01:04;6.90;;;4.07;;
12892;SDS011;6514;48.606;9.222;2022-09-20T04:03:44;7.07;;;3.70;;
12892;SDS011;6514;48.606;9.222;2022-09-20T04:06:23;6.47;;;5.00;;
12892;SDS011;6514;48.606;9.222;2022-09-20T04:12:18;4.43;;;3.60;;
12892;SDS011;6514;48.606;9.222;2022-09-20T04:14:53;6.80;;;4.27;;
12892;SDS011;6514;48.606;9.222;2022-09-20T04:17:34;25.10;;;11.53;;
12892;SDS011;6514;48.606;9.222;2022-09-20T04:20:14;14.80;;;8.70;;
12892;SDS011;6514;48.606;9.222;2022-09-20T04:22:45;13.10;;;7.33;;
12892;SDS011;6514;48.606;9.222;2022-09-20T04:25:17;5.97;;;3.80;;
12892;SDS011;6514;48.606;9.222;2022-09-20T04:27:49;6.23;;;3.60;;
12892;SDS011;6514;48.606;9.222;2022-09-20T04:30:20;6.43;;;3.33;;
12892;SDS011;6514;48.606;9.222;2022-09-20T04:32:55;6.33;;;3.50;;
12892;SDS011;6514;48.606;9.222;2022-09-20T04:35:31;7.40;;;3.67;;
12892;SDS011;6514;48.606;9.222;2022-09-20T04:38:20;7.27;;;3.70;;
12892;SDS011;6514;48.606;9.222;2022-09-20T04:40:59;6.90;;;3.23;;
12892;SDS011;6514;48.606;9.222;2022-09-20T04:43:53;5.47;;;4.03;;
12892;SDS011;6514;48.606;9.222;2022-09-20T04:53:18;9.53;;;6.13;;
12892;SDS011;6514;48.606;9.222;2022-09-20T04:55:55;10.03;;;5.50;;
12892;SDS011;6514;48.606;9.222;2022-09-20T04:58:47;11.90;;;5.00;;
12892;SDS011;6514;48.606;9.222;2022-09-20T05:14:19;5.20;;;3.93;;
12892;SDS011;6514;48.606;9.222;2022-09-20T05:16:57;6.20;;;3.60;;
12892;SDS011;6514;48.606;9.222;2022-09-20T05:19:35;8.40;;;4.00;;
12892;SDS011;6514;48.606;9.222;2022-09-20T05:22:17;6.10;;;3.50;;
12892;SDS011;6514;48.606;9.222;2022-09-20T05:28:05;9.93;;;4.23;;
12892;SDS011;6514;48.606;9.222;2022-09-20T05:30:38;6.57;;;4.33;;
12892;SDS011;6514;48.606;9.222;2022-09-20T05:33:13;10.97;;;8.77;;
12892;SDS011;6514;48.606;9.222;2022-09-20T05:35:50;12.10;;;10.63;;
12892;SDS011;6514;48.606;9.222;2022-09-20T05:38:28;9.40;;;7.63;;
12892;SDS011;6514;48.606;9.222;2022-09-20T05:41:06;6.93;;;5.10;;
12892;SDS011;6514;48.606;9.222;2022-09-20T05:43:42;8.57;;;5.90;;
12892;SDS011;6514;48.606;9.222;2022-09-20T05:46:21;9.33;;;7.00;;
12892;SDS011;6514;48.606;9.222;2022-09-20T05:49:01;6.47;;;4.60;;
12892;SDS011;6514;48.606;9.222;2022-09-20T05:51:40;4.30;;;3.40;;
12892;SDS011;6514;48.606;9.222;2022-09-20T05:54:23;7.20;;;3.57;;
12892;SDS011;6514;48.606;9.222;2022-09-20T05:57:10;6.97;;;3.53;;
12892;SDS011;6514;48.606;9.222;2022-09-20T05:59:54;5.57;;;3.40;;
12892;SDS011;6514;48.606;9.222;2022-09-20T06:02:31;9.30;;;3.60;;
12892;SDS011;6514;48.606;9.222;2022-09-20T06:05:07;7.60;;;4.73;;
12892;SDS011;6514;48.606;9.222;2022-09-20T06:10:58;10.77;;;4.67;;
12892;SDS011;6514;48.606;9.222;2022-09-20T06:13:44;8.07;;;5.23;;
12892;SDS011;6514;48.606;9.222;2022-09-20T06:16:36;5.73;;;4.30;;
12892;SDS011;6514;48.606;9.222;2022-09-20T06:19:19;5.40;;;3.87;;
12892;SDS011;6514;48.606;9.222;2022-09-20T06:21:55;4.60;;;3.60;;
12892;SDS011;6514;48.606;9.222;2022-09-20T06:24:32;5.10;;;3.47;;
12892;SDS011;6514;48.606;9.222;2022-09-20T06:27:05;5.70;;;4.00;;
12892;SDS011;6514;48.606;9.222;2022-09-20T06:29:37;10.20;;;4.00;;
12892;SDS011;6514;48.606;9.222;2022-09-20T06:32:07;9.20;;;3.60;;
12892;SDS011;6514;48.606;9.222;2022-09-20T06:34:36;5.47;;;2.90;;
12892;SDS011;6514;48.606;9.222;2022-09-20T06:37:06;5.50;;;3.77;;
12892;SDS011;6514;48.606;9.222;2022-09-20T06:40:02;6.73;;;3.23;;
12892;SDS011;6514;48.606;9.222;2022-09-20T06:42:57;6.43;;;3.53;;
12892;SDS011;6514;48.606;9.222;2022-09-20T06:45:24;7.67;;;3.77;;
12892;SDS011;6514;48.606;9.222;2022-09-20T06:47:51;6.00;;;3.90;;
12892;SDS011;6514;48.606;9.222;2022-09-20T06:50:20;7.80;;;3.90;;
12892;SDS011;6514;48.606;9.222;2022-09-20T06:52:47;6.13;;;3.40;;
12892;SDS011;6514;48.606;9.222;2022-09-20T06:55:16;5.10;;;3.17;;
12892;SDS011;6514;48.606;9.222;2022-09-20T06:57:46;4.37;;;3.30;;
12892;SDS011;6514;48.606;9.222;2022-09-20T07:00:14;8.53;;;3.30;;
12892;SDS011;6514;48.606;9.222;2022-09-20T07:02:41;8.90;;;3.92;;
12892;SDS011;6514;48.606;9.222;2022-09-20T07:05:12;6.00;;;3.87;;
12892;SDS011;6514;48.606;9.222;2022-09-20T07:07:41;7.67;;;4.03;;
12892;SDS011;6514;48.606;9.222;2022-09-20T07:10:08;5.23;;;3.07;;
12892;SDS011;6514;48.606;9.222;2022-09-20T07:12:36;6.03;;;3.57;;
12892;SDS011;6514;48.606;9.222;2022-09-20T07:15:04;6.67;;;4.70;;
12892;SDS011;6514;48.606;9.222;2022-09-20T07:17:31;8.33;;;3.83;;
12892;SDS011;6514;48.606;9.222;2022-09-20T07:19:58;8.03;;;4.90;;
12892;SDS011;6514;48.606;9.222;2022-09-20T07:22:25;6.97;;;3.70;;
12892;SDS011;6514;48.606;9.222;2022-09-20T07:24:54;10.43;;;5.23;;
12892;SDS011;6514;48.606;9.222;2022-09-20T07:27:23;8.80;;;4.97;;
12892;SDS011;6514;48.606;9.222;2022-09-20T07:29:50;9.90;;;4.83;;
12892;SDS011;6514;48.606;9.222;2022-09-20T07:32:16;17.47;;;7.23;;
12892;SDS011;6514;48.606;9.222;2022-09-20T07:34:43;9.87;;;4.70;;
12892;SDS011;6514;48.606;9.222;2022-09-20T07:37:11;12.20;;;5.90;;
12892;SDS011;6514;48.606;9.222;2022-09-20T07:39:38;9.53;;;5.67;;
12892;SDS011;6514;48.606;9.222;2022-09-20T07:42:06;12.27;;;4.33;;
12892;SDS011;6514;48.606;9.222;2022-09-20T07:44:33;4.93;;;3.60;;
12892;SDS011;6514;48.606;9.222;2022-09-20T07:47:00;6.40;;;3.47;;
12892;SDS011;6514;48.606;9.222;2022-09-20T07:49:27;4.90;;;2.73;;
12892;SDS011;6514;48.606;9.222;2022-09-20T07:51:55;4.33;;;2.57;;
12892;SDS011;6514;48.606;9.222;2022-09-20T07:54:22;6.93;;;2.47;;
12892;SDS011;6514;48.606;9.222;2022-09-20T07:56:51;3.70;;;2.40;;
12892;SDS011;6514;48.606;9.222;2022-09-20T07:59:19;5.33;;;2.30;;
12892;SDS011;6514;48.606;9.222;2022-09-20T08:01:46;5.50;;;2.80;;
12892;SDS011;6514;48.606;9.222;2022-09-20T08:04:13;5.67;;;2.87;;
12892;SDS011;6514;48.606;9.222;2022-09-20T08:06:41;5.03;;;2.50;;
12892;SDS011;6514;48.606;9.222;2022-09-20T08:09:09;7.07;;;3.30;;
12892;SDS011;6514;48.606;9.222;2022-09-20T08:11:38;6.67;;;2.83;;
12892;SDS011;6514;48.606;9.222;2022-09-20T08:14:11;4.60;;;2.93;;
12892;SDS011;6514;48.606;9.222;2022-09-20T08:16:41;5.93;;;2.43;;
12892;SDS011;6514;48.606;9.222;2022-09-20T08:19:13;6.87;;;2.60;;
12892;SDS011;6514;48.606;9.222;2022-09-20T08:21:41;5.73;;;2.67;;
12892;SDS011;6514;48.606;9.222;2022-09-20T08:24:08;5.27;;;2.37;;
12892;SDS011;6514;48.606;9.222;2022-09-20T08:26:35;5.30;;;2.30;;
12892;SDS011;6514;48.606;9.222;2022-09-20T08:29:02;2.83;;;2.40;;
12892;SDS011;6514;48.606;9.222;2022-09-20T08:31:30;5.70;;;2.67;;
12892;SDS011;6514;48.606;9.222;2022-09-20T08:34:02;5.77;;;2.47;;
12892;SDS011;6514;48.606;9.222;2022-09-20T08:36:30;8.07;;;2.50;;
12892;SDS011;6514;48.606;9.222;2022-09-20T08:38:58;3.43;;;2.57;;
12892;SDS011;6514;48.606;9.222;2022-09-20T08:41:26;4.47;;;2.43;;
12892;SDS011;6514;48.606;9.222;2022-09-20T08:43:56;4.33;;;1.90;;
12892;SDS011;6514;48.606;9.222;2022-09-20T08:46:26;4.57;;;2.10;;
12892;SDS011;6514;48.606;9.222;2022-09-20T08:48:58;3.70;;;1.97;;
12892;SDS011;6514;48.606;9.222;2022-09-20T08:51:27;4.77;;;1.80;;
12892;SDS011;6514;48.606;9.222;2022-09-20T08:53:58;5.37;;;1.63;;
12892;SDS011;6514;48.606;9.222;2022-09-20T08:56:28;6.43;;;1.73;;
12892;SDS011;6514;48.606;9.222;2022-09-20T08:59:00;5.33;;;1.90;;
12892;SDS011;6514;48.606;9.222;2022-09-20T09:01:27;5.13;;;2.10;;
12892;SDS011;6514;48.606;9.222;2022-09-20T09:03:57;8.03;;;2.37;;
12892;SDS011;6514;48.606;9.222;2022-09-20T09:06:37;5.80;;;2.03;;
12892;SDS011;6514;48.606;9.222;2022-09-20T09:09:04;6.43;;;2.20;;
12892;SDS011;6514;48.606;9.222;2022-09-20T09:11:32;4.97;;;2.20;;
12892;SDS011;6514;48.606;9.222;2022-09-20T09:14:01;5.57;;;1.90;;
12892;SDS011;6514;48.606;9.222;2022-09-20T09:16:52;4.30;;;1.77;;
12892;SDS011;6514;48.606;9.222;2022-09-20T09:19:26;5.23;;;2.13;;
12892;SDS011;6514;48.606;9.222;2022-09-20T09:21:56;6.03;;;1.50;;
12892;SDS011;6514;48.606;9.222;2022-09-20T09:24:25;6.53;;;1.67;;
12892;SDS011;6514;48.606;9.222;2022-09-20T09:27:03;6.67;;;1.73;;
12892;SDS011;6514;48.606;9.222;2022-09-20T09:29:33;7.13;;;2.10;;
12892;SDS011;6514;48.606;9.222;2022-09-20T09:32:16;4.67;;;1.50;;
12892;SDS011;6514;48.606;9.222;2022-09-20T09:34:46;6.93;;;1.60;;
12892;SDS011;6514;48.606;9.222;2022-09-20T09:37:22;5.43;;;1.13;;
12892;SDS011;6514;48.606;9.222;2022-09-20T09:40:05;6.77;;;1.27;;
12892;SDS011;6514;48.606;9.222;2022-09-20T09:42:44;4.03;;;1.43;;
12892;SDS011;6514;48.606;9.222;2022-09-20T09:45:22;5.57;;;1.60;;
12892;SDS011;6514;48.606;9.222;2022-09-20T09:47:54;4.23;;;1.37;;
12892;SDS011;6514;48.606;9.222;2022-09-20T09:50:23;4.17;;;1.20;;
12892;SDS011;6514;48.606;9.222;2022-09-20T09:53:01;4.97;;;1.20;;
12892;SDS011;6514;48.606;9.222;2022-09-20T09:55:45;5.73;;;1.87;;
12892;SDS011;6514;48.606;9.222;2022-09-20T09:58:35;3.97;;;1.27;;
12892;SDS011;6514;48.606;9.222;2022-09-20T10:01:14;7.17;;;1.33;;
12892;SDS011;6514;48.606;9.222;2022-09-20T10:03:51;6.00;;;1.33;;
12892;SDS011;6514;48.606;9.222;2022-09-20T10:06:22;3.17;;;1.10;;
12892;SDS011;6514;48.606;9.222;2022-09-20T10:09:00;6.50;;;1.10;;
12892;SDS011;6514;48.606;9.222;2022-09-20T10:11:49;5.27;;;1.40;;
12892;SDS011;6514;48.606;9.222;2022-09-20T10:14:33;6.70;;;1.30;;
12892;SDS011;6514;48.606;9.222;2022-09-20T10:17:18;6.20;;;1.40;;
12892;SDS011;6514;48.606;9.222;2022-09-20T10:19:59;3.73;;;1.40;;
12892;SDS011;6514;48.606;9.222;2022-09-20T10:22:37;5.80;;;1.40;;
12892;SDS011;6514;48.606;9.222;2022-09-20T10:25:18;2.87;;;1.17;;
12892;SDS011;6514;48.606;9.222;2022-09-20T10:27:56;2.43;;;1.07;;
12892;SDS011;6514;48.606;9.222;2022-09-20T10:30:33;3.70;;;1.20;;
12892;SDS011;6514;48.606;9.222;2022-09-20T10:33:15;4.93;;;1.33;;
12892;SDS011;6514;48.606;9.222;2022-09-20T10:35:58;3.67;;;1.40;;
12892;SDS011;6514;48.606;9.222;2022-09-20T10:38:36;5.47;;;1.17;;
12892;SDS011;6514;48.606;9.222;2022-09-20T10:41:13;3.43;;;1.37;;
12892;SDS011;6514;48.606;9.222;2022-09-20T10:44:10;5.73;;;1.40;;
12892;SDS011;6514;48.606;9.222;2022-09-20T10:46:47;3.50;;;1.40;;
12892;SDS011;6514;48.606;9.222;2022-09-20T10:49:20;5.67;;;1.50;;
12892;SDS011;6514;48.606;9.222;2022-09-20T10:51:59;5.63;;;1.63;;
12892;SDS011;6514;48.606;9.222;2022-09-20T10:54:38;6.13;;;1.63;;
12892;SDS011;6514;48.606;9.222;2022-09-20T10:57:23;5.43;;;1.60;;
12892;SDS011;6514;48.606;9.222;2022-09-20T11:00:07;7.17;;;1.63;;
12892;SDS011;6514;48.606;9.222;2022-09-20T11:02:49;8.77;;;1.50;;
12892;SDS011;6514;48.606;9.222;2022-09-20T11:05:39;5.23;;;1.37;;
12892;SDS011;6514;48.606;9.222;2022-09-20T11:08:12;5.50;;;1.57;;
12892;SDS011;6514;48.606;9.222;2022-09-20T11:10:44;5.63;;;1.50;;
12892;SDS011;6514;48.606;9.222;2022-09-20T11:13:18;7.23;;;1.57;;
12892;SDS011;6514;48.606;9.222;2022-09-20T11:15:53;4.10;;;1.67;;
12892;SDS011;6514;48.606;9.222;2022-09-20T11:18:27;4.13;;;1.23;;
12892;SDS011;6514;48.606;9.222;2022-09-20T11:21:04;5.33;;;1.40;;
12892;SDS011;6514;48.606;9.222;2022-09-20T11:23:39;4.30;;;1.40;;
12892;SDS011;6514;48.606;9.222;2022-09-20T11:26:12;5.40;;;1.40;;
12892;SDS011;6514;48.606;9.222;2022-09-20T11:28:47;4.07;;;1.27;;
12892;SDS011;6514;48.606;9.222;2022-09-20T11:31:17;4.63;;;1.50;;
12892;SDS011;6514;48.606;9.222;2022-09-20T11:33:49;5.93;;;1.47;;
12892;SDS011;6514;48.606;9.222;2022-09-20T11:36:22;3.50;;;1.40;;
12892;SDS011;6514;48.606;9.222;2022-09-20T11:38:53;4.93;;;1.37;;
12892;SDS011;6514;48.606;9.222;2022-09-20T11:41:25;5.53;;;1.60;;
12892;SDS011;6514;48.606;9.222;2022-09-20T11:43:58;4.70;;;1.10;;
12892;SDS011;6514;48.606;9.222;2022-09-20T11:46:32;7.07;;;1.70;;
12892;SDS011;6514;48.606;9.222;2022-09-20T11:49:03;5.10;;;1.10;;
12892;SDS011;6514;48.606;9.222;2022-09-20T11:57:31;3.20;;;1.20;;
12892;SDS011;6514;48.606;9.222;2022-09-20T12:00:00;2.87;;;1.17;;
12892;SDS011;6514;48.606;9.222;2022-09-20T12:02:33;5.57;;;1.13;;
12892;SDS011;6514;48.606;9.222;2022-09-20T12:05:02;4.67;;;1.47;;
12892;SDS011;6514;48.606;9.222;2022-09-20T12:07:31;3.50;;;1.30;;
12892;SDS011;6514;48.606;9.222;2022-09-20T12:10:02;6.13;;;1.27;;
12892;SDS011;6514;48.606;9.222;2022-09-20T12:12:35;3.20;;;1.20;;
12892;SDS011;6514;48.606;9.222;2022-09-20T12:15:06;6.33;;;1.20;;
12892;SDS011;6514;48.606;9.222;2022-09-20T12:21:05;4.00;;;1.30;;
12892;SDS011;6514;48.606;9.222;2022-09-20T12:23:45;3.90;;;1.10;;
12892;SDS011;6514;48.606;9.222;2022-09-20T12:26:38;5.67;;;1.40;;
12892;SDS011;6514;48.606;9.222;2022-09-20T12:32:39;2.83;;;1.40;;
12892;SDS011;6514;48.606;9.222;2022-09-20T12:38:33;19.57;;;4.20;;
12892;SDS011;6514;48.606;9.222;2022-09-20T12:41:05;5.33;;;1.40;;
12892;SDS011;6514;48.606;9.222;2022-09-20T12:43:38;5.13;;;1.50;;
12892;SDS011;6514;48.606;9.222;2022-09-20T12:46:21;4.47;;;1.40;;
12892;SDS011;6514;48.606;9.222;2022-09-20T12:49:03;3.33;;;1.63;;
12892;SDS011;6514;48.606;9.222;2022-09-20T12:51:57;3.60;;;1.07;;
12892;SDS011;6514;48.606;9.222;2022-09-20T12:54:48;3.97;;;1.40;;
12892;SDS011;6514;48.606;9.222;2022-09-20T12:57:22;2.87;;;1.00;;
12892;SDS011;6514;48.606;9.222;2022-09-20T12:59:56;3.47;;;1.20;;
12892;SDS011;6514;48.606;9.222;2022-09-20T13:02:42;4.53;;;1.77;;
12892;SDS011;6514;48.606;9.222;2022-09-20T13:05:33;5.00;;;1.30;;
12892;SDS011;6514;48.606;9.222;2022-09-20T13:08:04;3.23;;;1.57;;
12892;SDS011;6514;48.606;9.222;2022-09-20T13:10:40;2.40;;;1.40;;
12892;SDS011;6514;48.606;9.222;2022-09-20T13:13:23;4.00;;;1.20;;
12892;SDS011;6514;48.606;9.222;2022-09-20T13:16:00;4.40;;;1.40;;
12892;SDS011;6514;48.606;9.222;2022-09-20T13:18:30;3.00;;;1.47;;
12892;SDS011;6514;48.606;9.222;2022-09-20T13:21:01;2.80;;;1.27;;
12892;SDS011;6514;48.606;9.222;2022-09-20T13:23:33;2.27;;;1.10;;
12892;SDS011;6514;48.606;9.222;2022-09-20T13:26:10;2.47;;;1.10;;
12892;SDS011;6514;48.606;9.222;2022-09-20T13:28:41;5.20;;;1.23;;
12892;SDS011;6514;48.606;9.222;2022-09-20T13:31:21;5.43;;;1.40;;
12892;SDS011;6514;48.606;9.222;2022-09-20T13:33:52;2.47;;;1.30;;
12892;SDS011;6514;48.606;9.222;2022-09-20T13:36:23;3.80;;;1.50;;
12892;SDS011;6514;48.606;9.222;2022-09-20T13:38:52;2.90;;;1.97;;
12892;SDS011;6514;48.606;9.222;2022-09-20T13:41:20;3.43;;;1.60;;
12892;SDS011;6514;48.606;9.222;2022-09-20T13:43:48;3.47;;;1.60;;
12892;SDS011;6514;48.606;9.222;2022-09-20T13:46:20;2.33;;;1.37;;
12892;SDS011;6514;48.606;9.222;2022-09-20T13:48:52;1.87;;;1.20;;
12892;SDS011;6514;48.606;9.222;2022-09-20T13:51:26;2.30;;;1.40;;
12892;SDS011;6514;48.606;9.222;2022-09-20T13:53:53;4.83;;;1.53;;
12892;SDS011;6514;48.606;9.222;2022-09-20T13:56:51;2.90;;;1.40;;
12892;SDS011;6514;48.606;9.222;2022-09-20T13:59:20;4.60;;;1.53;;
12892;SDS011;6514;48.606;9.222;2022-09-20T14:01:48;4.80;;;1.50;;
12892;SDS011;6514;48.606;9.222;2022-09-20T14:04:16;2.80;;;1.40;;
12892;SDS011;6514;48.606;9.222;2022-09-20T14:06:49;4.23;;;1.40;;
12892;SDS011;6514;48.606;9.222;2022-09-20T14:09:20;3.23;;;1.50;;
12892;SDS011;6514;48.606;9.222;2022-09-20T14:11:52;2.43;;;1.33;;
12892;SDS011;6514;48.606;9.222;2022-09-20T14:14:22;6.07;;;1.80;;
12892;SDS011;6514;48.606;9.222;2022-09-20T14:16:50;4.10;;;1.70;;
12892;SDS011;6514;48.606;9.222;2022-09-20T14:19:28;3.27;;;1.40;;
12892;SDS011;6514;48.606;9.222;2022-09-20T14:21:58;3.37;;;1.70;;
12892;SDS011;6514;48.606;9.222;2022-09-20T14:24:29;2.70;;;1.60;;
12892;SDS011;6514;48.606;9.222;2022-09-20T14:29:42;4.57;;;1.50;;
12892;SDS011;6514;48.606;9.222;2022-09-20T14:32:14;2.90;;;1.47;;
12892;SDS011;6514;48.606;9.222;2022-09-20T14:35:00;3.90;;;1.90;;
12892;SDS011;6514;48.606;9.222;2022-09-20T14:37:31;6.60;;;2.13;;
12892;SDS011;6514;48.606;9.222;2022-09-20T14:40:03;2.60;;;1.80;;
12892;SDS011;6514;48.606;9.222;2022-09-20T14:42:33;4.30;;;1.50;;
12892;SDS011;6514;48.606;9.222;2022-09-20T14:45:02;1.90;;;1.40;;
12892;SDS011;6514;48.606;9.222;2022-09-20T14:47:34;2.73;;;1.50;;
12892;SDS011;6514;48.606;9.222;2022-09-20T14:50:03;3.40;;;1.30;;
12892;SDS011;6514;48.606;9.222;2022-09-20T14:52:46;1.80;;;1.27;;
12892;SDS011;6514;48.606;9.222;2022-09-20T14:55:25;2.30;;;1.30;;
12892;SDS011;6514;48.606;9.222;2022-09-20T14:57:58;5.00;;;1.60;;
12892;SDS011;6514;48.606;9.222;2022-09-20T15:00:26;4.23;;;1.60;;
12892;SDS011;6514;48.606;9.222;2022-09-20T15:02:53;3.80;;;1.50;;
12892;SDS011;6514;48.606;9.222;2022-09-20T15:05:27;4.20;;;1.90;;
12892;SDS011;6514;48.606;9.222;2022-09-20T15:07:56;5.27;;;1.93;;
12892;SDS011;6514;48.606;9.222;2022-09-20T15:10:23;2.50;;;1.60;;
12892;SDS011;6514;48.606;9.222;2022-09-20T15:12:50;4.37;;;1.90;;
12892;SDS011;6514;48.606;9.222;2022-09-20T15:15:17;6.20;;;1.87;;
12892;SDS011;6514;48.606;9.222;2022-09-20T15:17:44;4.23;;;1.40;;
12892;SDS011;6514;48.606;9.222;2022-09-20T15:20:13;4.60;;;1.50;;
12892;SDS011;6514;48.606;9.222;2022-09-20T15:22:42;4.53;;;1.50;;
12892;SDS011;6514;48.606;9.222;2022-09-20T15:25:14;3.50;;;1.63;;
12892;SDS011;6514;48.606;9.222;2022-09-20T15:27:42;3.87;;;1.40;;
12892;SDS011;6514;48.606;9.222;2022-09-20T15:30:11;5.97;;;2.03;;
12892;SDS011;6514;48.606;9.222;2022-09-20T15:32:41;4.03;;;1.70;;
12892;SDS011;6514;48.606;9.222;2022-09-20T15:35:09;5.53;;;1.47;;
12892;SDS011;6514;48.606;9.222;2022-09-20T15:37:37;4.53;;;1.57;;
12892;SDS011;6514;48.606;9.222;2022-09-20T15:40:05;3.37;;;1.40;;
12892;SDS011;6514;48.606;9.222;2022-09-20T15:42:35;3.83;;;1.27;;
12892;SDS011;6514;48.606;9.222;2022-09-20T15:45:06;2.17;;;1.43;;
12892;SDS011;6514;48.606;9.222;2022-09-20T15:47:35;4.13;;;1.40;;
12892;SDS011;6514;48.606;9.222;2022-09-20T15:50:03;2.37;;;1.10;;
12892;SDS011;6514;48.606;9.222;2022-09-20T15:52:32;4.70;;;1.50;;
12892;SDS011;6514;48.606;9.222;2022-09-20T15:55:00;5.03;;;1.30;;
12892;SDS011;6514;48.606;9.222;2022-09-20T15:57:29;4.17;;;1.10;;
12892;SDS011;6514;48.606;9.222;2022-09-20T15:59:57;3.07;;;1.10;;
12892;SDS011;6514;48.606;9.222;2022-09-20T16:02:25;1.57;;;0.90;;
12892;SDS011;6514;48.606;9.222;2022-09-20T16:04:53;2.07;;;0.90;;
12892;SDS011;6514;48.606;9.222;2022-09-20T16:07:20;2.07;;;1.20;;
12892;SDS011;6514;48.606;9.222;2022-09-20T16:09:50;3.20;;;1.07;;
12892;SDS011;6514;48.606;9.222;2022-09-20T16:12:18;2.80;;;1.10;;
12892;SDS011;6514;48.606;9.222;2022-09-20T16:14:45;2.73;;;1.10;;
12892;SDS011;6514;48.606;9.222;2022-09-20T16:17:13;5.63;;;1.07;;
12892;SDS011;6514;48.606;9.222;2022-09-20T16:19:41;3.13;;;1.20;;
12892;SDS011;6514;48.606;9.222;2022-09-20T16:22:10;2.93;;;1.20;;
12892;SDS011;6514;48.606;9.222;2022-09-20T16:24:37;2.90;;;1.20;;
12892;SDS011;6514;48.606;9.222;2022-09-20T16:27:05;3.40;;;1.30;;
12892;SDS011;6514;48.606;9.222;2022-09-20T16:29:33;1.90;;;1.30;;
12892;SDS011;6514;48.606;9.222;2022-09-20T16:32:00;3.27;;;1.23;;
12892;SDS011;6514;48.606;9.222;2022-09-20T16:34:31;2.70;;;1.03;;
12892;SDS011;6514;48.606;9.222;2022-09-20T16:36:59;2.40;;;1.40;;
12892;SDS011;6514;48.606;9.222;2022-09-20T16:39:28;2.80;;;1.27;;
12892;SDS011;6514;48.606;9.222;2022-09-20T16:41:56;1.63;;;1.37;;
12892;SDS011;6514;48.606;9.222;2022-09-20T16:44:27;2.90;;;1.23;;
12892;SDS011;6514;48.606;9.222;2022-09-20T16:46:55;1.30;;;1.20;;